Time;durP1;ratioP1;P1;durP2;ratioP2;P2;SDS_P1;SDS_P2;PMS_P1;PMS_P2;Temp;Humidity;BMP_temperature;BMP_pressure;BME280_temperature;BME280_humidity;BME280_pressure;Samples;Min_cycle;Max_cycle;Signal;HPM_P1;HPM_P2
2022/06/09 00:02:24;;;;;;;21.50;9.85;;;;;;;11.53;100.00;100608.69;4932727;29;20032;-86
2022/06/09 00:05:29;;;;;;;22.52;8.88;;;;;;;12.88;100.00;100831.16;4932575;29;20035;-88
2022/06/09 00:08:26;;;;;;;20.75;8.52;;;;;;;11.81;100.00;100654.16;4936968;29;20055;-86
2022/06/09 00:11:16;;;;;;;24.20;9.65;;;;;;;12.29;100.00;100744.75;4936681;29;20484;-86
2022/06/09 00:13:59;;;;;;;21.77;9.70;;;;;;;12.83;100.00;100835.81;4937004;29;20035;-88
2022/06/09 00:16:28;;;;;;;21.27;9.60;;;;;;;12.08;100.00;100718.63;4936493;29;20126;-91
2022/06/09 00:18:56;;;;;;;23.45;8.93;;;;;;;12.81;100.00;100839.47;4936589;29;20420;-89
2022/06/09 00:21:55;;;;;;;25.63;8.98;;;;;;;12.80;100.00;100843.81;4936739;29;20032;-91
2022/06/09 00:24:35;;;;;;;22.83;9.15;;;;;;;11.99;100.00;100720.09;4936703;29;20043;-89
2022/06/09 00:27:36;;;;;;;21.48;10.02;;;;;;;11.53;100.00;100641.47;4936792;29;20043;-89
2022/06/09 00:30:24;;;;;;;24.58;9.02;;;;;;;12.76;100.00;100844.97;4861568;29;20434;-90
2022/06/09 00:33:02;;;;;;;23.77;9.02;;;;;;;11.52;100.00;100642.41;4861125;29;20088;-90
2022/06/09 00:35:55;;;;;;;23.23;9.80;;;;;;;12.76;100.00;100839.78;4861107;29;20056;-90
2022/06/09 00:38:33;;;;;;;18.10;8.52;;;;;;;11.47;100.00;100634.97;4861136;29;20041;-92
2022/06/09 00:41:00;;;;;;;23.42;9.02;;;;;;;12.62;100.00;100825.22;4845795;29;20053;-91
2022/06/09 00:43:48;;;;;;;30.55;9.07;;;;;;;12.18;100.00;100768.00;4861247;29;20526;-88
2022/06/09 00:46:48;;;;;;;24.50;9.68;;;;;;;11.55;100.00;100673.22;4900975;29;20396;-88
2022/06/09 00:49:35;;;;;;;25.77;9.18;;;;;;;12.55;100.00;100851.69;4936087;29;20405;-87
2022/06/09 00:52:24;;;;;;;23.90;8.23;;;;;;;12.48;100.00;100856.47;4936368;29;20547;-90
2022/06/09 00:55:02;;;;;;;22.77;9.23;;;;;;;11.34;100.00;100686.69;4936019;29;20449;-92
2022/06/09 00:58:15;;;;;;;27.00;9.32;;;;;;;12.35;100.00;100860.84;4954456;29;20109;-87
2022/06/09 01:01:21;;;;;;;28.55;9.35;;;;;;;11.38;100.00;100720.91;4914240;29;20048;-91
2022/06/09 01:04:36;;;;;;;29.10;10.27;;;;;;;11.38;100.00;100728.66;4917171;29;20094;-90
2022/06/09 01:07:48;;;;;;;28.25;9.00;;;;;;;12.17;100.00;100856.94;4936178;29;20102;-92
2022/06/09 01:10:32;;;;;;;30.08;10.20;;;;;;;12.11;100.00;100855.63;4936034;28;20373;-88
2022/06/09 01:13:19;;;;;;;42.03;11.20;;;;;;;12.07;100.00;100855.00;4936163;29;20055;-85
2022/06/09 01:23:58;;;;;;;32.05;10.45;;;;;;;11.93;100.00;100867.22;4930730;29;20103;-90
2022/06/09 01:27:04;;;;;;;31.98;11.30;;;;;;;11.91;100.00;100867.34;4935382;29;20165;-87
2022/06/09 01:31:14;;;;;;;28.75;9.82;;;;;;;10.84;100.00;100695.25;4970374;28;20053;-86
2022/06/09 01:46:46;;;;;;;35.10;12.55;;;;;;;10.72;100.00;100672.84;4879746;29;20082;-91
2022/06/09 01:49:48;;;;;;;31.55;12.10;;;;;;;11.14;100.00;100742.31;4879293;29;20036;-92
2022/06/09 01:52:17;;;;;;;36.28;13.57;;;;;;;10.86;100.00;100696.81;4878934;29;20044;-90
2022/06/09 01:54:43;;;;;;;34.72;12.25;;;;;;;10.80;100.00;100694.63;4880047;29;20040;-91
2022/06/09 01:57:42;;;;;;;37.08;14.23;;;;;;;11.54;100.00;100809.47;4878506;29;20169;-91
2022/06/09 02:00:54;;;;;;;35.67;13.85;;;;;;;10.64;100.00;100675.91;4879503;29;20065;-87
2022/06/09 02:03:49;;;;;;;44.67;13.88;;;;;;;10.88;100.00;100723.38;4877787;29;20041;-86
2022/06/09 02:06:43;;;;;;;37.88;13.07;;;;;;;11.93;100.00;100895.69;4879089;29;20050;-91
2022/06/09 02:09:40;;;;;;;34.75;12.32;;;;;;;11.89;100.00;100892.47;4891620;28;20560;-87
2022/06/09 02:12:25;;;;;;;38.33;14.38;;;;;;;11.46;100.00;100832.41;4935571;29;20036;-91
2022/06/09 02:15:13;;;;;;;39.60;14.05;;;;;;;11.84;100.00;100896.31;4933908;29;20066;-91
2022/06/09 02:22:12;;;;;;;;;;;;;;;;;;;;;
2022/06/09 02:28:07;;;;;;;45.13;15.23;;;;;;;10.81;100.00;100758.28;4805550;29;20140;-90
2022/06/09 02:30:59;;;;;;;41.55;14.27;;;;;;;10.62;100.00;100725.09;4805170;29;20062;-92
2022/06/09 02:33:25;;;;;;;45.45;14.65;;;;;;;10.60;100.00;100716.59;4805212;29;20420;-94
2022/06/09 02:35:54;;;;;;;44.50;15.27;;;;;;;11.90;100.00;100927.78;4805330;29;20488;-91
2022/06/09 02:38:32;;;;;;;38.55;15.15;;;;;;;11.96;100.00;100922.19;4805402;29;20443;-89
2022/06/09 02:44:22;;;;;;;40.15;14.77;;;;;;;10.46;100.00;100677.09;4806419;29;20068;-86
2022/06/09 02:54:25;;;;;;;42.05;14.65;;;;;;;12.04;100.00;100942.38;4805016;29;20088;-87
2022/06/09 03:04:30;;;;;;;41.30;14.65;;;;;;;10.79;100.00;100741.22;4973506;28;20073;-93
2022/06/09 03:10:05;;;;;;;;;;;;;;;12.07;100.00;100950.75;4953621;29;20131;-90
2022/06/09 03:20:40;;;;;;;40.92;16.08;;;;;;;12.11;100.00;100969.53;4933700;29;20119;-88
2022/06/09 03:23:52;;;;;;;53.13;15.20;;;;;;;12.13;100.00;100977.19;4933587;29;20040;-90
2022/06/09 03:26:24;;;;;;;;;;;;;;;12.16;100.00;100980.38;4915180;29;20083;-86
2022/06/09 03:29:11;;;;;;;40.25;15.35;;;;;;;12.17;100.00;100984.63;4933608;29;19918;-89
2022/06/09 03:38:29;;;;;;;38.63;15.65;;;;;;;10.96;100.00;100789.22;4895707;29;20541;-84
2022/06/09 03:41:35;;;;;;;46.22;15.05;;;;;;;12.32;100.00;101006.91;4894815;29;20040;-84
2022/06/09 03:44:10;;;;;;;43.17;15.20;;;;;;;11.87;100.00;100938.31;4895389;29;20056;-86
2022/06/09 03:46:36;;;;;;;42.05;15.00;;;;;;;11.82;100.00;100930.06;4917068;28;20054;-86
2022/06/09 03:49:10;;;;;;;40.28;14.32;;;;;;;11.21;100.00;100830.63;4971373;28;20480;-87
2022/06/09 03:51:36;;;;;;;38.25;13.98;;;;;;;11.13;100.00;100825.97;4971607;28;20035;-88
2022/06/09 03:54:34;;;;;;;43.83;14.40;;;;;;;11.02;100.00;100807.75;4971843;28;20026;-88
2022/06/09 04:00:24;;;;;;;39.55;13.60;;;;;;;11.71;100.00;100958.38;4971999;28;20126;-90
2022/06/09 04:03:23;;;;;;;40.72;13.32;;;;;;;12.07;100.00;101036.19;4971763;28;20031;-89
2022/06/09 04:06:03;;;;;;;39.35;12.57;;;;;;;12.02;100.00;101040.03;4954699;28;20158;-87
2022/06/09 04:08:40;;;;;;;33.45;13.23;;;;;;;11.23;100.00;100928.75;4971738;28;20030;-84
2022/06/09 04:11:32;;;;;;;44.67;13.57;;;;;;;11.97;100.00;101050.66;4973042;28;20042;-87
2022/06/09 04:14:31;;;;;;;51.45;14.63;;;;;;;11.96;100.00;101058.53;4993042;28;20026;-88
2022/06/09 04:17:06;;;;;;;40.38;14.45;;;;;;;10.73;100.00;100856.09;4994787;28;20097;-87
2022/06/09 04:29:38;;;;;;;44.63;13.45;;;;;;;11.02;100.00;100893.00;4952719;29;20462;-90
2022/06/09 04:32:04;;;;;;;49.67;14.75;;;;;;;11.38;100.00;100931.16;4936126;29;20036;-88
2022/06/09 04:38:38;;;;;;;;;;;;;;;;;;;;;
2022/06/09 04:41:14;;;;;;;36.97;12.52;;;;;;;13.55;100.00;100985.38;4951987;28;20039;-89
2022/06/09 04:44:20;;;;;;;35.22;11.48;;;;;;;13.98;100.00;101073.94;4936009;29;20035;-86
2022/06/09 04:50:42;;;;;;;33.28;11.48;;;;;;;13.38;100.00;101080.81;4952229;28;20038;-89
2022/06/09 04:53:37;;;;;;;32.67;10.98;;;;;;;11.89;100.00;100884.69;4954468;28;20036;-89
2022/06/09 05:03:52;;;;;;;28.48;11.07;;;;;;;13.03;100.00;101114.34;4859629;29;20044;-90
2022/06/09 05:13:22;;;;;;;23.35;9.02;;;;;;;17.22;86.18;101116.63;4883886;29;20044;-87
2022/06/09 05:15:55;;;;;;;23.42;8.68;;;;;;;16.76;81.37;100940.59;4871725;29;20041;-82
2022/06/09 05:18:58;;;;;;;22.90;8.60;;;;;;;18.23;80.15;101121.56;4893945;29;20074;-90
2022/06/09 05:21:38;;;;;;;26.70;9.10;;;;;;;17.22;79.33;101068.81;4895565;29;20047;-93
2022/06/09 05:24:11;;;;;;;25.95;8.52;;;;;;;16.16;79.26;100960.50;4886625;29;20037;-93
2022/06/09 05:26:41;;;;;;;20.00;7.85;;;;;;;16.31;77.17;100933.13;4886265;29;20609;-95
2022/06/09 05:29:38;;;;;;;23.17;8.85;;;;;;;17.02;77.95;101021.78;4877826;29;20032;-93
2022/06/09 05:32:03;;;;;;;23.23;8.43;;;;;;;16.92;75.16;101006.13;4891073;29;20080;-91
2022/06/09 05:44:59;;;;;;;19.48;7.80;;;;;;;15.38;83.72;100990.34;4956995;29;20145;-93
2022/06/09 05:48:22;;;;;;;23.65;8.02;;;;;;;15.20;83.86;100971.81;4921006;29;20104;-87
2022/06/09 05:51:18;;;;;;;23.63;8.52;;;;;;;16.16;84.03;101087.34;4884406;29;20065;-89
2022/06/09 05:53:46;;;;;;;18.08;7.03;;;;;;;16.15;81.82;101067.44;4882100;29;20098;-91
2022/06/09 05:56:50;;;;;;;16.63;7.90;;;;;;;15.38;83.39;100972.13;4881262;29;20036;-88
2022/06/09 06:02:31;;;;;;;18.15;7.00;;;;;;;15.27;86.52;101124.84;4816579;29;20031;-94
2022/06/09 06:08:14;;;;;;;18.60;6.97;;;;;;;14.04;89.56;101016.34;4822507;29;20042;-87
2022/06/09 06:11:00;;;;;;;22.42;7.38;;;;;;;14.43;90.14;101089.63;4811839;29;20042;-88
2022/06/09 06:13:28;;;;;;;17.13;7.35;;;;;;;13.96;89.98;101032.50;4812236;29;20046;-92
2022/06/09 06:16:04;;;;;;;15.55;7.25;;;;;;;14.63;91.12;101128.81;4824435;29;20039;-94
2022/06/09 06:18:49;;;;;;;19.38;6.30;;;;;;;14.78;91.13;101144.22;4815825;29;20063;-91
2022/06/09 06:21:21;;;;;;;18.38;6.63;;;;;;;14.20;90.98;101068.81;4817486;29;20042;-89
2022/06/09 06:23:56;;;;;;;15.63;7.05;;;;;;;15.06;91.76;101219.19;4826880;29;20065;-92
2022/06/09 06:26:22;;;;;;;16.60;6.60;;;;;;;14.17;91.65;101108.00;4864098;29;20113;-89
2022/06/09 06:28:47;;;;;;;19.17;7.30;;;;;;;14.68;92.19;101197.81;4915600;29;20563;-91
2022/06/09 06:31:13;;;;;;;17.33;7.15;;;;;;;14.75;93.53;101219.81;4916094;29;20032;-85
2022/06/09 06:37:04;;;;;;;19.10;6.30;;;;;;;13.61;93.75;101081.78;4916726;29;20043;-92
2022/06/09 06:39:35;;;;;;;17.05;6.35;;;;;;;14.60;94.44;101259.00;4946757;28;20110;-89
2022/06/09 06:42:00;;;;;;;;;;;;;;;14.67;93.49;101262.00;4995580;28;20483;-90
2022/06/09 06:44:40;;;;;;;17.75;6.82;;;;;;;13.38;94.39;101078.22;4997229;28;19937;-90
2022/06/09 06:47:15;;;;;;;19.30;8.13;;;;;;;13.38;95.62;101080.00;4980248;28;20077;-90
2022/06/09 06:49:40;;;;;;;19.45;7.00;;;;;;;13.75;95.90;101146.50;5000178;28;20463;-85
2022/06/09 06:52:24;;;;;;;19.98;7.93;;;;;;;13.88;95.85;101167.22;5001561;28;20029;-92
2022/06/09 06:54:50;;;;;;;17.25;6.95;;;;;;;14.68;95.27;101288.81;4984896;28;20030;-92
2022/06/09 06:57:16;;;;;;;19.13;7.50;;;;;;;14.31;95.50;101231.66;4999477;28;20060;-94
2022/06/09 06:59:55;;;;;;;18.02;7.60;;;;;;;13.48;94.90;101097.41;4999491;28;20096;-90
2022/06/09 07:05:55;;;;;;;17.27;7.35;;;;;;;13.99;95.11;101162.09;4994687;28;20042;-87
2022/06/09 07:11:54;;;;;;;16.92;7.75;;;;;;;13.88;94.02;101104.09;4993695;28;20034;-87
2022/06/09 07:15:03;;;;;;;19.42;7.25;;;;;;;15.23;93.87;101308.13;4993522;28;20114;-88
2022/06/09 07:17:59;;;;;;;13.63;6.50;;;;;;;14.60;92.58;101188.00;4993184;28;20113;-88
2022/06/09 07:21:04;;;;;;;10.40;5.13;;;;;;;15.54;91.69;101325.72;4956724;28;20130;-86
2022/06/09 07:26:57;;;;;;;10.40;5.10;;;;;;;14.58;88.56;101151.72;4993685;23;20605;-88
2022/06/09 07:29:29;;;;;;;;;;;;;;;15.92;89.70;101325.38;5013530;28;20466;-89
2022/06/09 07:46:01;;;;;;;9.52;4.53;;;;;;;17.10;84.53;101329.03;4914636;29;20051;-89
2022/06/09 07:48:33;;;;;;;11.48;4.78;;;;;;;16.35;84.49;101147.41;4913991;29;20072;-88
2022/06/09 08:50:55;;;;;;;3.90;1.10;;;;;;;18.62;64.25;101425.78;4954743;29;20073;-86
2022/06/09 09:10:31;;;;;;;5.95;2.53;;;;;;;17.39;72.66;101454.53;4935872;29;20205;-86
2022/06/09 09:23:56;;;;;;;7.00;3.20;;;;;;;16.85;75.37;101371.94;4898141;29;20104;-84
2022/06/09 09:27:11;;;;;;;6.95;3.22;;;;;;;17.59;75.63;101465.94;4897492;29;20064;-86
2022/06/09 09:30:26;;;;;;;7.10;3.53;;;;;;;17.62;76.55;101466.53;4881921;29;20044;-88
2022/06/09 09:33:25;;;;;;;7.40;3.70;;;;;;;17.80;74.13;101473.81;4897697;29;20040;-85
2022/06/09 09:36:42;;;;;;;5.85;3.85;;;;;;;16.79;74.34;101265.50;4897509;29;20126;-84
2022/06/09 09:49:00;;;;;;;5.28;2.50;;;;;;;19.32;69.35;101480.72;4916417;29;20172;-84
2022/06/09 09:52:19;;;;;;;7.97;2.95;;;;;;;19.63;68.18;101481.44;4915692;29;20036;-85
2022/06/09 09:54:47;;;;;;;7.97;3.00;;;;;;;18.57;64.88;101319.88;4916026;29;20118;-83
2022/06/09 09:57:20;;;;;;;7.80;3.05;;;;;;;19.70;64.36;101488.63;4928609;29;20067;-85
2022/06/09 09:59:59;;;;;;;7.38;3.17;;;;;;;18.67;64.75;101312.06;4915937;29;20044;-85
2022/06/09 10:08:43;;;;;;;6.80;3.65;;;;;;;19.80;65.76;101441.44;4915666;29;20047;-85
2022/06/09 10:11:53;;;;;;;10.13;3.83;;;;;;;20.15;63.31;101493.19;4915598;29;20547;-85
2022/06/09 10:14:16;;;;;;;;;;;;;;;;;;;;;
2022/06/09 10:16:54;;;;;;;7.13;2.78;;;;;;;19.44;63.84;101377.47;4883975;29;20040;-82
2022/06/09 10:19:25;;;;;;;8.18;3.50;;;;;;;19.17;61.24;101355.47;4915706;29;20403;-82
2022/06/09 10:21:50;;;;;;;;;;;;;;;20.16;62.05;101497.50;4915978;29;20111;-84
2022/06/09 10:24:20;;;;;;;10.15;3.60;;;;;;;18.63;61.32;101319.34;4915639;29;20014;-83
2022/06/09 10:27:31;;;;;;;6.88;2.85;;;;;;;19.05;63.17;101387.16;4915422;29;20032;-83
2022/06/09 10:30:41;;;;;;;7.93;2.85;;;;;;;18.89;65.01;101364.16;4918770;29;20047;-83
2022/06/09 10:33:42;;;;;;;7.60;3.53;;;;;;;19.05;68.02;101359.19;4933453;29;20044;-83
2022/06/09 10:36:50;;;;;;;9.15;4.30;;;;;;;20.23;64.51;101505.59;4936405;29;20106;-83
2022/06/09 10:39:27;;;;;;;6.72;3.92;;;;;;;19.40;62.17;101390.03;4936458;29;20106;-83
2022/06/09 10:42:26;;;;;;;8.82;4.20;;;;;;;20.21;65.33;101508.38;4936261;29;20024;-84
2022/06/09 10:45:19;;;;;;;7.22;3.50;;;;;;;20.18;64.04;101513.09;4936197;29;20534;-84
2022/06/09 10:56:44;;;;;;;9.13;3.15;;;;;;;20.03;61.66;101499.59;4955495;29;20077;-81
2022/06/09 10:59:28;;;;;;;9.57;2.63;;;;;;;19.85;61.85;101467.19;4955633;29;20031;-82
2022/06/09 11:01:54;;;;;;;10.88;3.08;;;;;;;19.71;60.81;101490.25;4955268;29;20151;-81
2022/06/09 11:04:21;;;;;;;8.15;2.83;;;;;;;19.87;62.20;101528.19;4955193;29;20110;-81
2022/06/09 11:07:11;;;;;;;7.88;2.58;;;;;;;19.80;62.27;101493.00;4955128;29;20031;-80
2022/06/09 11:09:50;;;;;;;6.63;2.78;;;;;;;19.98;60.63;101449.38;4955160;29;20078;-80
2022/06/09 11:12:22;;;;;;;8.00;2.90;;;;;;;20.41;61.76;101524.06;4954767;29;20034;-81
2022/06/09 11:15:14;;;;;;;8.90;3.00;;;;;;;20.45;61.24;101533.31;4954988;29;20027;-82
2022/06/09 11:18:17;;;;;;;10.40;2.78;;;;;;;20.46;60.25;101538.44;4955025;29;20043;-77
2022/06/09 11:20:48;;;;;;;14.73;3.15;;;;;;;20.36;58.81;101548.09;4955015;29;20058;-80
2022/06/09 11:23:29;;;;;;;10.07;2.85;;;;;;;20.36;57.36;101547.28;4955098;29;20065;-82
2022/06/09 11:26:00;;;;;;;7.95;2.95;;;;;;;20.61;58.61;101544.03;4954545;29;20015;-83
2022/06/09 11:28:54;;;;;;;13.30;3.10;;;;;;;20.85;58.84;101548.78;4937710;29;20031;-82
2022/06/09 11:31:37;;;;;;;7.22;2.40;;;;;;;20.41;57.13;101530.13;4937885;29;20050;-83
2022/06/09 11:34:47;;;;;;;6.63;2.35;;;;;;;19.60;59.22;101429.34;4955091;29;20467;-83
2022/06/09 11:40:39;;;;;;;;;;;;;;;20.70;58.50;101552.84;4954164;29;20387;-79
2022/06/09 11:43:32;;;;;;;9.10;2.85;;;;;;;20.79;58.08;101559.84;4954290;29;19914;-80
2022/06/09 11:46:04;;;;;;;10.27;2.70;;;;;;;20.30;57.21;101462.94;4954558;29;20062;-82
2022/06/09 11:48:43;;;;;;;8.43;2.63;;;;;;;20.48;56.80;101478.78;4954608;29;20191;-80
2022/06/09 11:51:10;;;;;;;10.38;2.25;;;;;;;21.19;56.02;101567.38;4954540;29;20094;-80
2022/06/09 11:53:46;;;;;;;7.28;2.70;;;;;;;20.62;54.18;101514.19;4937220;29;20051;-80
2022/06/09 11:56:43;;;;;;;7.65;2.50;;;;;;;20.28;54.96;101472.75;4954366;29;20023;-80
2022/06/09 11:59:11;;;;;;;7.72;2.45;;;;;;;20.65;55.39;101528.81;4876751;29;20124;-78
2022/06/09 12:01:39;;;;;;;7.15;2.20;;;;;;;20.84;52.85;101531.34;4876518;29;20130;-81
2022/06/09 12:04:29;;;;;;;9.25;2.28;;;;;;;21.11;52.84;101578.59;4864651;29;20041;-78
2022/06/09 12:07:12;;;;;;;11.32;2.58;;;;;;;21.10;52.86;101579.56;4864823;29;20035;-81
2022/06/09 12:09:51;;;;;;;8.25;2.17;;;;;;;21.03;52.96;101586.38;4880315;29;20047;-79
2022/06/09 12:12:36;;;;;;;9.27;2.30;;;;;;;21.25;55.49;101581.72;4880138;29;20089;-79
2022/06/09 12:15:26;;;;;;;9.18;2.38;;;;;;;21.56;53.83;101575.19;4880445;29;20104;-79
2022/06/09 12:18:06;;;;;;;8.35;2.33;;;;;;;22.05;53.39;101586.09;4880264;29;20443;-79
2022/06/09 12:20:41;;;;;;;8.32;2.08;;;;;;;21.89;50.67;101552.59;4880310;29;20079;-80
2022/06/09 12:23:42;;;;;;;9.00;2.50;;;;;;;22.16;51.50;101585.06;4880170;29;20037;-79
2022/06/09 12:26:10;;;;;;;;;;;;;;;22.14;51.11;101587.03;4880756;29;20033;-81
2022/06/09 12:28:44;;;;;;;8.07;2.20;;;;;;;21.53;52.74;101580.72;4879883;29;19919;-78
2022/06/09 12:31:16;;;;;;;8.68;1.80;;;;;;;21.37;51.19;101586.66;4879950;29;20037;-79
2022/06/09 12:33:50;;;;;;;7.07;2.20;;;;;;;21.34;52.58;101592.19;4880251;29;20037;-81
2022/06/09 12:36:28;;;;;;;8.70;2.15;;;;;;;21.17;52.10;101577.19;4926466;29;20039;-79
2022/06/09 12:38:57;;;;;;;9.27;2.80;;;;;;;20.35;52.14;101475.59;4957833;29;20031;-79
2022/06/09 12:41:40;;;;;;;8.35;2.17;;;;;;;21.29;51.99;101610.19;4957564;29;20034;-80
2022/06/09 12:44:15;;;;;;;8.27;2.30;;;;;;;21.27;51.13;101616.59;4957543;29;20031;-81
2022/06/09 12:46:41;;;;;;;7.72;2.10;;;;;;;21.28;50.28;101618.22;4940085;29;20555;-79
2022/06/09 12:49:21;;;;;;;6.10;2.35;;;;;;;21.03;50.64;101572.44;4957601;29;20106;-80
2022/06/09 12:51:46;;;;;;;7.32;2.20;;;;;;;21.41;49.35;101618.69;4957245;28;20039;-80
2022/06/09 12:54:41;;;;;;;9.80;2.17;;;;;;;21.70;50.28;101623.75;4957585;29;20031;-79
2022/06/09 12:57:17;;;;;;;10.57;2.30;;;;;;;21.75;50.40;101635.50;4879214;29;20061;-80
2022/06/09 12:59:43;;;;;;;5.70;1.80;;;;;;;21.20;47.62;101590.03;4879587;29;20029;-79
2022/06/09 13:02:33;;;;;;;7.57;2.10;;;;;;;21.00;50.69;101580.59;4864144;29;20049;-80
2022/06/09 13:05:24;;;;;;;9.15;2.20;;;;;;;20.93;50.34;101596.09;4879401;29;20041;-80
2022/06/09 13:07:58;;;;;;;9.90;2.43;;;;;;;20.96;50.45;101645.72;4879427;29;20092;-80
2022/06/09 13:10:28;;;;;;;6.25;1.80;;;;;;;20.98;50.94;101643.78;4863886;29;20297;-79
2022/06/09 13:13:04;;;;;;;5.65;1.80;;;;;;;21.14;50.72;101644.00;4879210;29;20375;-80
2022/06/09 13:15:37;;;;;;;5.13;2.00;;;;;;;21.26;49.66;101642.03;4879296;29;20033;-80
2022/06/09 13:18:23;;;;;;;5.85;1.60;;;;;;;21.43;49.18;101632.50;4879156;29;20036;-81
2022/06/09 13:20:55;;;;;;;5.85;1.45;;;;;;;21.07;47.86;101584.31;4863232;29;20128;-80
2022/06/09 13:23:21;;;;;;;5.57;2.00;;;;;;;21.56;48.34;101653.19;4863723;29;20033;-80
2022/06/09 13:25:48;;;;;;;7.60;1.70;;;;;;;21.22;48.57;101610.91;4863609;29;20528;-80
2022/06/09 13:28:39;;;;;;;6.53;1.70;;;;;;;21.17;49.64;101585.91;4879065;29;20509;-80
2022/06/09 13:31:25;;;;;;;6.32;1.55;;;;;;;21.60;49.18;101647.47;4841737;29;20061;-80
2022/06/09 13:34:16;;;;;;;6.03;1.90;;;;;;;21.61;50.12;101646.50;4890120;29;20165;-81
2022/06/09 13:36:53;;;;;;;6.85;1.90;;;;;;;21.82;49.85;101648.84;4916316;29;20072;-81
2022/06/09 13:39:28;;;;;;;7.57;1.73;;;;;;;21.65;47.72;101644.41;4916335;29;20055;-79
2022/06/09 13:42:08;;;;;;;6.70;1.58;;;;;;;21.61;47.85;101661.44;4916313;29;20047;-80
2022/06/09 13:44:41;;;;;;;5.00;1.67;;;;;;;21.46;46.77;101669.84;4916383;29;20040;-80
2022/06/09 13:47:18;;;;;;;7.82;1.92;;;;;;;21.47;47.67;101668.88;4916290;29;20032;-80
2022/06/09 13:50:07;;;;;;;6.43;1.65;;;;;;;21.46;45.68;101663.75;4916107;29;20040;-80
2022/06/09 13:52:39;;;;;;;6.00;1.88;;;;;;;21.15;46.24;101618.56;4915455;29;20127;-81
2022/06/09 13:55:13;;;;;;;5.90;1.55;;;;;;;21.29;46.02;101680.31;4915969;29;20036;-79
2022/06/09 13:57:42;;;;;;;7.72;1.67;;;;;;;21.00;47.73;101596.34;4916212;29;20036;-78
2022/06/09 14:00:50;;;;;;;7.70;1.80;;;;;;;21.75;48.21;101674.09;4915665;29;20036;-79
2022/06/09 14:03:30;;;;;;;4.90;1.52;;;;;;;22.04;46.65;101673.88;4841455;29;20080;-80
2022/06/09 14:06:01;;;;;;;4.43;1.38;;;;;;;22.26;44.33;101683.97;4841630;29;20026;-81
2022/06/09 14:08:29;;;;;;;6.05;1.50;;;;;;;22.08;46.50;101684.97;4866128;29;20080;-82
2022/06/09 14:10:55;;;;;;;6.85;1.67;;;;;;;21.42;46.20;101618.53;4878326;29;20056;-79
2022/06/09 14:13:21;;;;;;;6.63;1.65;;;;;;;21.52;44.91;101676.28;4878150;29;20068;-79
2022/06/09 14:15:49;;;;;;;5.57;1.83;;;;;;;21.32;46.63;101680.81;4862583;29;20025;-78
2022/06/09 14:18:21;;;;;;;5.10;1.45;;;;;;;21.34;45.48;101702.56;4862812;29;20051;-79
2022/06/09 14:20:47;;;;;;;4.93;1.20;;;;;;;21.29;44.75;101704.78;4878340;29;20108;-79
2022/06/09 14:23:20;;;;;;;6.95;1.35;;;;;;;21.39;46.28;101702.94;4878048;29;20049;-78
2022/06/09 14:25:45;;;;;;;8.15;1.92;;;;;;;21.13;47.48;101647.56;4862131;29;20450;-79
2022/06/09 14:28:11;;;;;;;6.78;1.67;;;;;;;21.60;45.97;101715.00;4877946;29;20033;-80
2022/06/09 14:30:37;;;;;;;6.35;1.80;;;;;;;21.53;47.06;101712.13;4862354;29;20096;-78
2022/06/09 14:33:02;;;;;;;7.38;1.50;;;;;;;21.36;47.55;101692.72;4878222;29;20037;-79
2022/06/09 14:35:27;;;;;;;6.78;1.45;;;;;;;21.61;47.71;101698.25;4862751;29;20536;-78
2022/06/09 14:37:53;;;;;;;5.20;1.38;;;;;;;21.75;46.66;101700.38;4861907;29;20485;-77
2022/06/09 14:40:32;;;;;;;6.47;1.42;;;;;;;21.81;46.81;101717.34;4945344;29;20047;-78
2022/06/09 14:42:58;;;;;;;8.50;1.70;;;;;;;21.68;46.67;101717.72;4955484;29;20035;-78
2022/06/09 14:45:23;;;;;;;5.90;1.60;;;;;;;21.51;48.44;101721.13;4955341;29;20485;-80
2022/06/09 14:47:49;;;;;;;7.55;1.70;;;;;;;21.02;48.75;101721.28;4938070;29;20043;-77
2022/06/09 14:50:18;;;;;;;7.30;2.17;;;;;;;20.38;49.13;101656.34;4955518;29;20059;-75
2022/06/09 14:52:43;;;;;;;7.45;1.95;;;;;;;20.53;50.21;101715.31;4955087;29;20399;-75
2022/06/09 14:55:09;;;;;;;7.15;2.08;;;;;;;20.45;49.59;101737.94;4955285;29;20023;-82
2022/06/09 14:57:35;;;;;;;6.28;1.73;;;;;;;20.25;51.71;101693.31;4955171;29;20083;-78
2022/06/09 15:00:00;;;;;;;6.57;1.85;;;;;;;20.80;49.67;101724.25;4955232;29;20493;-77
2022/06/09 15:02:28;;;;;;;10.43;1.90;;;;;;;20.81;48.45;101695.22;4938012;29;20027;-77
2022/06/09 15:04:53;;;;;;;7.30;1.83;;;;;;;21.06;50.21;101727.09;4955183;29;20094;-79
2022/06/09 15:07:21;;;;;;;7.15;1.83;;;;;;;21.28;49.20;101739.91;4955087;29;20106;-77
2022/06/09 15:09:46;;;;;;;9.20;1.83;;;;;;;21.35;50.00;101740.16;4937995;29;20031;-79
2022/06/09 15:12:16;;;;;;;6.03;1.88;;;;;;;21.28;46.52;101752.22;4955084;29;20173;-78
2022/06/09 15:14:42;;;;;;;9.18;2.08;;;;;;;21.00;45.91;101743.41;4937430;29;20045;-76
2022/06/09 15:17:10;;;;;;;7.47;1.40;;;;;;;21.23;49.50;101751.78;4955055;29;20031;-79
2022/06/09 15:19:36;;;;;;;6.68;1.70;;;;;;;21.20;47.89;101722.19;4937804;29;20027;-78
2022/06/09 15:22:01;;;;;;;10.95;2.00;;;;;;;21.43;45.72;101754.25;4954770;29;20102;-77
2022/06/09 15:24:27;;;;;;;7.25;1.70;;;;;;;21.19;45.76;101748.63;4958958;28;20110;-75
2022/06/09 15:26:52;;;;;;;7.70;1.58;;;;;;;21.15;45.80;101744.63;4974107;28;20029;-76
2022/06/09 15:29:18;;;;;;;8.55;1.52;;;;;;;21.18;45.96;101752.22;4974079;28;20031;-76
2022/06/09 15:31:45;;;;;;;5.32;1.38;;;;;;;21.11;45.33;101741.44;4974387;28;20106;-77
2022/06/09 15:34:11;;;;;;;9.00;1.58;;;;;;;20.95;46.44;101725.47;4973870;28;20035;-78
2022/06/09 15:36:36;;;;;;;5.55;1.55;;;;;;;20.94;45.64;101757.94;4955441;28;20042;-80
2022/06/09 15:39:03;;;;;;;7.53;2.10;;;;;;;20.59;47.34;101733.13;4973938;28;20038;-77
2022/06/09 15:41:29;;;;;;;6.95;1.88;;;;;;;20.72;46.25;101766.94;4956608;28;20034;-79
2022/06/09 15:43:55;;;;;;;6.45;1.63;;;;;;;20.61;47.28;101738.22;4973875;28;20093;-79
2022/06/09 15:46:20;;;;;;;7.30;1.77;;;;;;;20.89;44.89;101771.50;4973729;28;20034;-77
2022/06/09 15:48:46;;;;;;;7.75;1.67;;;;;;;20.88;44.72;101727.00;4956692;28;20490;-79
2022/06/09 15:51:12;;;;;;;6.35;1.83;;;;;;;21.25;42.12;101765.63;4973893;28;20027;-78
2022/06/09 15:53:38;;;;;;;6.07;1.50;;;;;;;21.31;42.29;101770.31;4973571;28;20490;-78
2022/06/09 15:56:06;;;;;;;7.88;1.45;;;;;;;21.34;44.07;101767.41;4973749;28;20027;-79
2022/06/09 15:58:31;;;;;;;7.60;1.73;;;;;;;21.02;42.60;101738.84;4956638;28;20038;-78
2022/06/09 16:00:57;;;;;;;5.70;1.20;;;;;;;20.98;41.41;101759.31;4973604;28;20038;-79
2022/06/09 16:03:23;;;;;;;7.03;1.63;;;;;;;21.02;41.55;101776.44;4974047;28;20497;-79
2022/06/09 16:05:49;;;;;;;5.78;1.40;;;;;;;20.75;41.53;101739.59;4956498;28;20093;-79
2022/06/09 16:08:22;;;;;;;5.38;1.17;;;;;;;20.97;40.33;101783.09;4973758;28;20042;-79
2022/06/09 16:10:50;;;;;;;5.63;1.50;;;;;;;20.77;39.88;101770.00;4973864;28;20485;-79
2022/06/09 16:13:16;;;;;;;7.88;1.20;;;;;;;20.65;40.78;101755.38;4974157;28;20026;-80
2022/06/09 16:15:45;;;;;;;5.32;1.25;;;;;;;20.29;40.95;101709.63;4973745;28;20053;-80
2022/06/09 16:18:14;;;;;;;5.95;1.50;;;;;;;20.76;41.46;101772.75;4956463;28;20074;-80
2022/06/09 16:20:42;;;;;;;7.15;1.67;;;;;;;20.63;41.24;101768.59;4973759;28;20445;-80
2022/06/09 16:23:11;;;;;;;4.28;1.00;;;;;;;20.51;40.56;101766.28;4956288;28;20045;-82
2022/06/09 16:25:37;;;;;;;6.38;1.60;;;;;;;20.49;40.07;101774.28;4973894;28;20030;-83
2022/06/09 16:28:04;;;;;;;6.88;1.35;;;;;;;20.43;38.92;101787.13;4973409;28;20038;-81
2022/06/09 16:30:30;;;;;;;4.35;0.93;;;;;;;20.44;40.90;101786.97;4973472;28;20081;-77
2022/06/09 16:32:56;;;;;;;6.38;1.23;;;;;;;20.42;42.05;101788.06;4973570;28;20023;-76
2022/06/09 16:35:21;;;;;;;9.02;1.75;;;;;;;20.42;40.73;101790.69;4973463;28;20058;-77
2022/06/09 16:37:47;;;;;;;6.18;1.38;;;;;;;20.30;40.47;101790.81;4973362;28;20118;-76
2022/06/09 16:40:17;;;;;;;5.10;1.10;;;;;;;20.20;42.47;101776.03;4973587;28;20062;-78